Time;durP1;ratioP1;P1;durP2;ratioP2;P2;SDS_P1;SDS_P2;PMS_P1;PMS_P2;Temp;Humidity;BMP_temperature;BMP_pressure;BME280_temperature;BME280_humidity;BME280_pressure;Samples;Min_cycle;Max_cycle;Signal;HPM_P1;HPM_P2
2022/05/16 00:00:16;;;;;;;23.97;5.60;;;;;;;18.33;49.44;101295.16;4986689;28;20094;-33
2022/05/16 00:02:41;;;;;;;20.17;5.38;;;;;;;18.29;49.63;101293.09;4986117;28;20360;-34
2022/05/16 00:05:07;;;;;;;27.25;5.30;;;;;;;18.19;49.85;101282.66;4981767;28;20027;-32
2022/05/16 00:07:32;;;;;;;26.88;6.63;;;;;;;18.13;50.33;101295.28;4986198;28;20039;-33
2022/05/16 00:09:58;;;;;;;21.42;5.10;;;;;;;18.12;49.97;101292.81;4985003;28;20467;-32
2022/05/16 00:12:23;;;;;;;19.70;5.60;;;;;;;18.08;50.24;101292.38;4984843;28;20069;-35
2022/05/16 00:14:48;;;;;;;25.45;6.00;;;;;;;18.07;50.39;101293.47;4984377;28;20043;-34
2022/05/16 00:17:14;;;;;;;22.98;5.32;;;;;;;18.06;50.45;101286.34;4985803;28;20054;-33
2022/05/16 00:19:40;;;;;;;31.63;6.18;;;;;;;18.01;50.76;101290.75;4985415;28;20033;-33
2022/05/16 00:22:06;;;;;;;22.27;5.72;;;;;;;17.93;50.99;101278.25;4984321;28;20111;-34
2022/05/16 00:24:31;;;;;;;32.45;5.80;;;;;;;17.92;50.99;101265.69;4985029;28;20479;-33
2022/05/16 00:26:58;;;;;;;29.27;6.13;;;;;;;17.83;51.33;101265.16;4986550;28;20027;-33
2022/05/16 00:29:24;;;;;;;26.43;5.93;;;;;;;17.82;51.41;101255.28;4986647;28;20031;-32
2022/05/16 00:31:50;;;;;;;24.95;6.30;;;;;;;17.77;51.69;101266.81;4986130;28;20031;-33
2022/05/16 00:34:16;;;;;;;21.60;5.50;;;;;;;17.66;51.90;101251.16;4985206;28;20058;-33
2022/05/16 00:36:43;;;;;;;27.00;5.78;;;;;;;17.66;51.94;101262.06;4985494;28;20043;-32
2022/05/16 00:39:08;;;;;;;26.58;5.72;;;;;;;17.66;52.16;101253.06;4987915;28;20308;-34
2022/05/16 00:41:34;;;;;;;24.33;5.60;;;;;;;17.63;52.19;101245.34;4990753;28;20023;-33
2022/05/16 00:44:00;;;;;;;17.10;5.15;;;;;;;17.56;52.44;101253.53;4989840;28;20030;-32
2022/05/16 00:46:31;;;;;;;24.83;5.22;;;;;;;17.55;52.43;101246.44;4990288;28;20612;-33
2022/05/16 00:48:58;;;;;;;20.90;5.15;;;;;;;17.55;52.48;101249.16;4990980;28;20037;-32
2022/05/16 00:51:33;;;;;;;22.65;6.05;;;;;;;17.53;52.73;101240.38;4989895;28;20042;-32
2022/05/16 00:54:05;;;;;;;29.65;6.05;;;;;;;17.51;52.70;101237.88;4972090;28;20093;-33
2022/05/16 00:56:30;;;;;;;20.35;5.43;;;;;;;17.51;52.79;101231.59;4972952;28;20101;-33
2022/05/16 00:58:55;;;;;;;24.17;6.05;;;;;;;17.48;52.82;101232.88;4989992;28;20490;-34
2022/05/16 01:06:50;;;;;;;24.90;5.85;;;;;;;17.37;53.44;101216.41;4973978;28;20077;-32
2022/05/16 01:09:16;;;;;;;21.17;5.70;;;;;;;17.34;53.44;101218.50;4970857;28;20522;-32
2022/05/16 01:11:41;;;;;;;17.75;5.40;;;;;;;17.38;53.59;101221.63;4987999;28;20038;-32
2022/05/16 01:14:06;;;;;;;21.92;5.43;;;;;;;17.34;53.67;101223.94;4988692;28;20062;-34
2022/05/16 01:16:32;;;;;;;29.55;5.85;;;;;;;17.30;53.69;101224.59;4987408;28;20027;-32
2022/05/16 01:18:57;;;;;;;30.48;5.78;;;;;;;17.24;54.52;101230.88;4989037;28;20063;-32
2022/05/16 01:21:32;;;;;;;28.27;5.57;;;;;;;17.20;54.46;101219.63;4987684;28;20031;-32
2022/05/16 01:24:09;;;;;;;21.17;5.50;;;;;;;17.16;54.66;101207.50;4988705;28;20039;-32
2022/05/16 01:26:36;;;;;;;25.55;5.78;;;;;;;17.14;54.78;101215.06;4983594;28;20130;-31
2022/05/16 01:29:02;;;;;;;28.95;5.85;;;;;;;17.11;55.08;101218.19;4989126;28;20062;-32
2022/05/16 01:31:28;;;;;;;23.70;5.45;;;;;;;17.10;55.01;101217.34;4972277;28;20023;-32
2022/05/16 01:33:53;;;;;;;24.67;6.55;;;;;;;17.07;55.46;101220.50;4988217;28;20089;-33
2022/05/16 01:36:19;;;;;;;24.45;5.63;;;;;;;17.06;55.50;101207.13;4988878;28;20034;-33
2022/05/16 01:38:44;;;;;;;26.90;6.07;;;;;;;17.07;55.48;101206.91;4988366;28;20038;-32
2022/05/16 01:41:12;;;;;;;24.85;5.95;;;;;;;17.03;55.76;101210.28;4989190;28;20136;-32
2022/05/16 01:43:45;;;;;;;18.75;5.15;;;;;;;17.02;55.68;101205.91;4989117;28;20045;-32
2022/05/16 01:46:13;;;;;;;26.58;6.60;;;;;;;16.98;56.05;101199.22;4988640;28;20101;-33
2022/05/16 01:48:38;;;;;;;20.98;5.47;;;;;;;16.92;56.23;101194.63;4971959;28;20113;-33
2022/05/16 01:51:07;;;;;;;22.48;5.38;;;;;;;16.89;56.25;101193.19;4987811;28;20034;-33
2022/05/16 01:53:33;;;;;;;24.60;5.90;;;;;;;16.79;56.89;101193.63;4963049;28;20562;-35
2022/05/16 01:55:59;;;;;;;24.85;6.07;;;;;;;16.80;56.76;101192.59;4989196;28;20030;-34
2022/05/16 01:58:25;;;;;;;19.15;5.32;;;;;;;16.75;57.11;101195.09;4988773;28;20023;-35
2022/05/16 02:00:51;;;;;;;19.23;4.95;;;;;;;16.71;57.41;101193.84;4989054;28;20117;-34
2022/05/16 02:03:16;;;;;;;19.38;4.82;;;;;;;16.72;57.32;101194.66;4988616;28;20073;-35
2022/05/16 02:05:43;;;;;;;17.52;5.30;;;;;;;16.68;57.37;101191.56;4987579;28;20102;-32
2022/05/16 02:08:08;;;;;;;23.50;5.53;;;;;;;16.67;57.56;101189.91;4986985;28;20498;-35
2022/05/16 02:10:34;;;;;;;17.52;5.22;;;;;;;16.62;57.68;101190.53;4986932;28;20039;-33
2022/05/16 02:12:59;;;;;;;24.48;5.30;;;;;;;16.59;57.94;101181.97;4987418;28;20030;-35
2022/05/16 02:15:28;;;;;;;25.48;5.40;;;;;;;16.66;58.02;101178.16;4987830;28;20038;-32
2022/05/16 02:17:54;;;;;;;20.38;4.93;;;;;;;16.62;58.06;101179.66;4988834;28;20037;-32
2022/05/16 02:20:20;;;;;;;23.00;5.20;;;;;;;16.56;58.15;101179.66;4988672;28;20019;-33
2022/05/16 02:25:32;;;;;;;19.73;5.55;;;;;;;16.42;58.97;101168.84;4988455;28;20054;-32
2022/05/16 02:27:57;;;;;;;20.25;5.57;;;;;;;16.43;58.99;101178.66;4987070;28;20097;-34
2022/05/16 02:30:23;;;;;;;15.57;5.40;;;;;;;16.43;59.09;101167.81;4988082;28;20035;-32
2022/05/16 02:32:49;;;;;;;15.80;5.10;;;;;;;16.46;59.03;101156.50;4988613;28;20045;-33
2022/05/16 02:35:15;;;;;;;23.40;5.35;;;;;;;16.49;58.88;101146.25;4988515;28;20058;-32
2022/05/16 02:37:40;;;;;;;20.05;5.07;;;;;;;16.49;58.69;101143.56;4989278;28;20015;-33
2022/05/16 02:40:06;;;;;;;23.23;5.63;;;;;;;16.41;58.81;101150.03;4972352;28;20038;-33
2022/05/16 02:42:32;;;;;;;22.30;5.70;;;;;;;16.38;59.03;101137.72;4971960;28;20023;-32
2022/05/16 02:44:57;;;;;;;21.38;5.80;;;;;;;16.43;58.90;101135.19;4988565;28;20498;-34
2022/05/16 02:47:23;;;;;;;20.63;5.85;;;;;;;16.38;58.95;101137.72;4988515;28;20054;-33
2022/05/16 02:49:49;;;;;;;29.60;5.50;;;;;;;16.42;58.86;101128.09;4987957;28;20058;-32
2022/05/16 02:52:14;;;;;;;27.20;5.60;;;;;;;16.39;58.83;101128.50;4989095;28;20035;-33
2022/05/16 02:54:40;;;;;;;21.08;5.75;;;;;;;16.41;58.87;101129.16;4987281;28;20098;-32
2022/05/16 02:57:06;;;;;;;22.75;5.45;;;;;;;16.34;59.08;101133.75;4986823;28;20034;-32
2022/05/16 02:59:32;;;;;;;29.35;5.78;;;;;;;16.31;58.95;101134.19;4970964;28;20034;-34
2022/05/16 03:02:03;;;;;;;40.70;6.22;;;;;;;16.34;58.86;101132.91;4988872;28;20019;-34
2022/05/16 03:04:28;;;;;;;28.00;6.40;;;;;;;16.33;58.61;101134.81;4988547;28;20039;-34
2022/05/16 03:06:54;;;;;;;27.40;6.07;;;;;;;16.31;58.77;101134.19;4989027;28;20053;-34
2022/05/16 03:09:21;;;;;;;22.92;5.93;;;;;;;16.35;58.68;101130.00;4986803;28;20027;-35
2022/05/16 03:11:46;;;;;;;27.90;5.95;;;;;;;16.34;58.40;101139.19;4986637;28;20038;-32
2022/05/16 03:14:11;;;;;;;23.80;5.97;;;;;;;16.32;58.49;101144.00;4987125;28;20034;-33
2022/05/16 03:16:37;;;;;;;24.40;5.40;;;;;;;16.34;58.46;101133.75;4987220;28;20041;-32
2022/05/16 03:19:03;;;;;;;26.38;5.53;;;;;;;16.38;58.52;101128.75;4986523;28;20034;-32
2022/05/16 03:21:29;;;;;;;20.42;6.53;;;;;;;16.47;58.19;101124.72;4986806;28;20473;-32
2022/05/16 03:23:55;;;;;;;16.90;5.68;;;;;;;16.42;58.57;101140.84;4987696;28;20019;-33
2022/05/16 03:26:20;;;;;;;22.02;6.57;;;;;;;16.31;58.73;101150.47;4987716;28;20023;-34
2022/05/16 03:28:46;;;;;;;27.33;5.93;;;;;;;16.27;59.00;101126.66;4987173;28;20050;-32
2022/05/16 03:31:11;;;;;;;21.40;5.80;;;;;;;16.35;59.07;101129.16;4970026;28;20163;-32
2022/05/16 03:33:36;;;;;;;20.42;5.47;;;;;;;16.23;59.28;101142.56;4987272;28;20038;-32
2022/05/16 03:36:01;;;;;;;18.17;6.07;;;;;;;16.20;59.59;101124.81;4987845;28;20038;-32
2022/05/16 03:41:23;;;;;;;20.65;6.03;;;;;;;16.24;59.83;101120.63;4934366;28;20051;-32
2022/05/16 03:43:50;;;;;;;21.23;6.60;;;;;;;16.17;60.05;101127.13;4979507;28;20734;-32
2022/05/16 03:46:16;;;;;;;20.73;5.93;;;;;;;16.13;60.37;101121.25;4987328;28;20033;-32
2022/05/16 03:48:41;;;;;;;29.75;6.80;;;;;;;16.12;60.28;101124.22;4987262;28;20098;-32
2022/05/16 03:51:08;;;;;;;28.05;5.97;;;;;;;16.04;60.81;101127.16;4986517;28;20030;-34
2022/05/16 03:53:45;;;;;;;27.90;6.20;;;;;;;16.04;60.83;101132.56;4987228;28;20050;-32
2022/05/16 03:56:11;;;;;;;18.83;5.55;;;;;;;16.03;60.85;101126.28;4976750;28;20038;-32
2022/05/16 03:58:36;;;;;;;18.85;5.93;;;;;;;16.00;61.15;101121.28;4986925;28;20073;-33
2022/05/16 04:01:01;;;;;;;23.70;7.25;;;;;;;15.97;61.28;101127.97;4986704;28;20030;-32
2022/05/16 04:03:27;;;;;;;25.70;6.53;;;;;;;15.95;61.49;101129.22;4987287;28;20031;-32
2022/05/16 04:05:52;;;;;;;24.88;6.93;;;;;;;15.93;61.54;101126.75;4986718;28;20046;-32
2022/05/16 04:08:17;;;;;;;24.42;6.53;;;;;;;15.96;61.55;101129.03;4987829;28;21127;-33
2022/05/16 04:10:43;;;;;;;30.92;6.22;;;;;;;16.02;61.66;101120.03;4987783;28;20023;-33
2022/05/16 04:13:08;;;;;;;27.27;6.50;;;;;;;16.12;61.52;101116.06;4987627;28;20038;-32
2022/05/16 04:15:33;;;;;;;23.38;6.90;;;;;;;16.20;61.09;101116.66;4986490;28;20030;-31
2022/05/16 04:17:59;;;;;;;14.68;6.25;;;;;;;16.25;61.20;101107.88;4987469;28;20050;-33
2022/05/16 04:20:24;;;;;;;20.65;6.38;;;;;;;16.28;61.00;101112.06;4970099;28;20035;-33
2022/05/16 04:22:49;;;;;;;24.33;6.95;;;;;;;16.24;61.60;101115.19;4987859;28;20048;-32
2022/05/16 04:25:18;;;;;;;25.83;6.75;;;;;;;16.17;61.14;101125.25;4987378;28;20022;-32
2022/05/16 04:27:43;;;;;;;31.25;6.30;;;;;;;16.20;61.29;101129.41;4986070;28;20034;-32
2022/05/16 04:30:10;;;;;;;26.05;6.65;;;;;;;16.31;61.02;101117.06;4985487;28;20027;-32
2022/05/16 04:32:35;;;;;;;14.90;5.90;;;;;;;16.38;60.72;101107.84;4984621;28;20027;-32
2022/05/16 04:35:01;;;;;;;17.77;6.32;;;;;;;16.38;60.40;101107.84;4985076;28;20094;-34
2022/05/16 04:37:32;;;;;;;24.45;7.15;;;;;;;16.29;60.69;101111.81;4967818;28;20477;-34
2022/05/16 04:40:01;;;;;;;18.20;6.93;;;;;;;16.36;61.09;101115.38;4985697;28;20097;-31
2022/05/16 04:42:41;;;;;;;27.08;7.13;;;;;;;16.42;60.90;101119.09;4986389;28;20062;-32
2022/05/16 04:45:09;;;;;;;21.75;6.28;;;;;;;16.48;60.96;101111.97;4985199;28;20030;-33
2022/05/16 04:47:34;;;;;;;32.10;7.05;;;;;;;16.57;60.35;101124.28;4986041;28;20042;-31
2022/05/16 04:50:00;;;;;;;16.83;6.07;;;;;;;16.44;60.75;101122.44;4985547;28;20034;-32
2022/05/16 04:52:25;;;;;;;19.63;6.70;;;;;;;16.62;60.55;101113.63;4986199;28;20069;-32
2022/05/16 04:54:51;;;;;;;24.17;6.20;;;;;;;16.75;60.58;101124.44;4986737;28;20026;-34
2022/05/16 04:57:17;;;;;;;14.20;6.38;;;;;;;16.77;60.39;101126.91;4985985;28;20049;-32
2022/05/16 04:59:46;;;;;;;24.05;7.18;;;;;;;16.75;60.31;101135.31;4987230;28;20034;-32
2022/05/16 05:02:12;;;;;;;25.70;7.57;;;;;;;16.72;60.69;101124.88;4985573;28;20034;-32
2022/05/16 05:04:37;;;;;;;28.05;6.55;;;;;;;16.74;60.67;101125.47;4986540;28;20074;-32
2022/05/16 05:07:03;;;;;;;23.35;6.43;;;;;;;16.84;60.70;101117.72;4987505;28;20058;-33
2022/05/16 05:09:28;;;;;;;17.70;6.75;;;;;;;16.94;60.28;101110.97;4986846;28;20039;-33
2022/05/16 05:14:41;;;;;;;24.45;7.45;;;;;;;17.06;60.04;101122.81;4978683;28;20077;-33
2022/05/16 05:17:09;;;;;;;21.83;6.70;;;;;;;17.03;59.92;101137.69;4972669;28;20019;-35
2022/05/16 05:19:36;;;;;;;18.58;6.38;;;;;;;16.94;60.68;101132.72;4985872;28;20027;-35
2022/05/16 05:22:03;;;;;;;24.37;7.67;;;;;;;16.85;60.77;101130.28;4987233;28;20038;-34
2022/05/16 05:24:29;;;;;;;23.33;7.77;;;;;;;16.88;61.17;101135.28;4986613;28;20029;-35
2022/05/16 05:26:54;;;;;;;16.75;6.80;;;;;;;16.88;60.76;101138.00;4988252;28;20302;-34
2022/05/16 05:29:20;;;;;;;19.95;6.32;;;;;;;16.81;60.93;101136.34;4987621;28;20030;-33
2022/05/16 05:31:46;;;;;;;20.85;6.78;;;;;;;16.83;61.08;101143.25;4987990;28;20027;-33
2022/05/16 05:34:12;;;;;;;31.55;8.10;;;;;;;16.87;61.17;101139.00;4988698;28;20035;-34
2022/05/16 05:36:39;;;;;;;23.80;7.07;;;;;;;16.93;61.39;101142.78;4989160;28;20031;-33
2022/05/16 05:39:04;;;;;;;26.83;7.33;;;;;;;16.83;61.31;101151.38;4989077;28;20069;-33
2022/05/16 05:41:30;;;;;;;22.67;7.15;;;;;;;16.84;62.08;101163.91;4989365;28;20034;-32
2022/05/16 05:43:55;;;;;;;26.27;6.70;;;;;;;16.82;62.47;101167.91;4988677;28;20034;-33
2022/05/16 05:46:21;;;;;;;22.05;6.93;;;;;;;16.86;62.41;101164.53;4988313;28;20026;-33
2022/05/16 05:48:47;;;;;;;23.13;6.93;;;;;;;16.89;61.72;101168.72;4988569;28;20046;-33
2022/05/16 05:51:13;;;;;;;29.35;7.72;;;;;;;16.76;62.19;101175.00;4988122;28;20027;-33
2022/05/16 05:53:40;;;;;;;19.67;6.57;;;;;;;16.82;62.30;101174.16;4988841;28;20046;-33
2022/05/16 05:56:05;;;;;;;23.55;7.10;;;;;;;16.82;62.20;101179.59;4971121;28;20038;-36
2022/05/16 05:58:32;;;;;;;25.77;7.93;;;;;;;16.68;62.93;101184.22;4987946;28;20111;-35
2022/05/16 06:00:58;;;;;;;24.88;7.40;;;;;;;16.71;63.95;101182.97;4988377;28;20030;-32
2022/05/16 06:03:24;;;;;;;21.15;6.63;;;;;;;16.81;63.91;101177.13;4989840;28;20524;-33
2022/05/16 06:05:49;;;;;;;21.77;7.00;;;;;;;16.83;63.54;101180.47;4989097;28;20073;-33
2022/05/16 06:08:14;;;;;;;22.33;7.68;;;;;;;16.96;63.17;101176.84;4987924;28;20055;-32
2022/05/16 06:10:40;;;;;;;24.65;7.68;;;;;;;16.96;63.30;101179.59;4988214;28;20465;-32
2022/05/16 06:13:05;;;;;;;25.80;7.50;;;;;;;17.05;63.03;101184.53;4989760;28;20031;-33
2022/05/16 06:15:31;;;;;;;16.45;6.60;;;;;;;17.07;62.96;101173.44;4988997;28;20023;-33
2022/05/16 06:17:56;;;;;;;21.88;7.63;;;;;;;17.24;63.15;101171.88;4989643;28;20038;-32
2022/05/16 06:20:22;;;;;;;23.80;7.57;;;;;;;17.20;62.61;101176.09;4988232;28;20034;-33
2022/05/16 06:22:47;;;;;;;26.92;7.40;;;;;;;17.18;62.14;101178.19;4989421;28;20030;-32
2022/05/16 06:25:34;;;;;;;20.65;7.00;;;;;;;17.32;62.84;101168.94;4988004;28;20510;-35
2022/05/16 06:28:07;;;;;;;21.63;7.72;;;;;;;17.41;62.29;101182.25;4988789;28;20067;-33
2022/05/16 06:30:35;;;;;;;21.98;7.85;;;;;;;17.53;62.11;101177.78;4989116;28;20022;-33
2022/05/16 06:33:00;;;;;;;19.75;7.43;;;;;;;17.71;61.65;101179.75;4988941;28;20027;-33
2022/05/16 06:35:25;;;;;;;19.23;7.47;;;;;;;17.75;61.05;101173.66;4988597;28;20425;-34
2022/05/16 06:37:51;;;;;;;31.83;7.35;;;;;;;17.91;61.02;101176.91;4989173;28;20019;-34
2022/05/16 06:40:19;;;;;;;23.38;7.50;;;;;;;18.05;60.95;101177.63;4989221;28;20501;-33
2022/05/16 06:42:45;;;;;;;;;;;;;;;18.25;60.74;101182.88;4988183;28;20035;-37
2022/05/16 06:45:11;;;;;;;22.83;6.72;;;;;;;18.42;59.92;101178.50;4987235;28;19952;-33
2022/05/16 06:47:36;;;;;;;22.63;8.05;;;;;;;18.66;59.46;101174.03;4972361;28;20027;-35
2022/05/16 06:50:02;;;;;;;23.85;7.75;;;;;;;18.83;59.01;101183.31;4947539;28;20035;-34
2022/05/16 06:52:28;;;;;;;21.15;7.65;;;;;;;19.16;58.66;101173.03;4989075;28;20038;-32
2022/05/16 06:54:53;;;;;;;20.35;7.05;;;;;;;19.28;57.99;101182.94;4958003;28;20320;-33
2022/05/16 06:57:18;;;;;;;18.88;7.78;;;;;;;19.26;57.79;101185.06;4970315;28;20015;-36
2022/05/16 06:59:44;;;;;;;28.42;8.23;;;;;;;19.26;58.19;101186.97;4990275;28;20039;-41
2022/05/16 07:02:09;;;;;;;24.52;7.75;;;;;;;19.39;58.70;101184.03;4990982;28;20046;-36
2022/05/16 07:04:36;;;;;;;25.63;8.10;;;;;;;19.27;58.00;101189.47;4993535;28;20027;-33
2022/05/16 07:07:04;;;;;;;40.25;8.40;;;;;;;19.30;58.30;101196.38;4994997;28;20522;-35
2022/05/16 07:09:30;;;;;;;25.17;8.20;;;;;;;19.37;58.16;101188.06;4994958;28;20055;-35
2022/05/16 07:11:55;;;;;;;25.70;8.88;;;;;;;19.50;57.78;101193.34;4995426;28;20078;-34
2022/05/16 07:14:20;;;;;;;21.02;7.78;;;;;;;19.55;57.99;101195.38;4995167;28;20058;-33
2022/05/16 07:16:46;;;;;;;24.77;8.10;;;;;;;19.41;59.46;101197.47;4995885;28;20025;-35
2022/05/16 07:19:12;;;;;;;20.13;8.48;;;;;;;19.33;59.24;101193.16;4994504;28;20038;-35
2022/05/16 07:21:38;;;;;;;25.08;7.97;;;;;;;19.36;59.39;101189.97;4994593;28;20011;-34
2022/05/16 07:24:04;;;;;;;23.10;7.30;;;;;;;19.36;59.45;101195.44;4994650;28;20025;-34
2022/05/16 07:29:13;;;;;;;18.50;7.05;;;;;;;19.59;59.14;101210.22;4993601;28;20152;-33
2022/05/16 07:31:39;;;;;;;22.40;6.80;;;;;;;19.61;59.21;101219.00;4994649;28;20038;-36
2022/05/16 07:34:04;;;;;;;21.70;6.78;;;;;;;19.66;59.09;101210.94;4994758;28;20054;-33
2022/05/16 07:36:29;;;;;;;21.88;7.20;;;;;;;19.73;58.91;101217.19;4995221;28;20038;-35
2022/05/16 07:38:55;;;;;;;15.05;6.53;;;;;;;20.21;58.30;101212.63;4995308;28;20038;-34
2022/05/16 07:41:20;;;;;;;21.05;7.03;;;;;;;20.82;56.62;101209.38;4995029;28;20035;-35
2022/05/16 07:43:46;;;;;;;22.10;6.32;;;;;;;20.89;56.28;101211.16;4994496;28;20054;-34
2022/05/16 07:46:11;;;;;;;20.17;6.03;;;;;;;21.09;55.95;101202.53;4993967;28;20078;-33
2022/05/16 07:48:36;;;;;;;16.80;6.40;;;;;;;21.25;55.87;101207.25;4990892;28;20026;-34
2022/05/16 07:51:02;;;;;;;17.88;6.10;;;;;;;21.27;55.65;101211.41;4987735;28;20031;-34
2022/05/16 07:53:28;;;;;;;18.70;5.63;;;;;;;21.27;55.30;101210.53;4991551;28;20049;-34
2022/05/16 07:55:55;;;;;;;15.13;5.22;;;;;;;21.78;54.89;101210.69;4992178;28;20146;-34
2022/05/16 07:58:22;;;;;;;15.23;5.45;;;;;;;22.75;52.75;101215.78;4992207;28;20031;-33
2022/05/16 08:00:49;;;;;;;18.13;5.30;;;;;;;23.84;50.94;101219.50;4992131;28;20132;-34
2022/05/16 08:03:15;;;;;;;16.15;5.55;;;;;;;24.73;48.43;101212.44;4975075;28;20027;-35
2022/05/16 08:05:41;;;;;;;15.77;5.25;;;;;;;25.69;45.16;101231.50;4992132;28;20023;-34
2022/05/16 08:10:52;;;;;;;16.77;4.95;;;;;;;26.63;43.12;101224.59;4980066;28;20053;-33
2022/05/16 08:13:18;;;;;;;21.75;4.55;;;;;;;26.49;43.16;101226.25;4992014;28;20047;-35
2022/05/16 08:15:43;;;;;;;12.75;3.83;;;;;;;26.05;44.75;101233.19;4992884;28;20730;-34
2022/05/16 08:18:11;;;;;;;7.82;3.88;;;;;;;25.65;45.31;101224.88;4990549;28;20083;-34
2022/05/16 08:20:39;;;;;;;9.73;3.90;;;;;;;25.39;46.10;101222.06;4992531;28;20027;-37
2022/05/16 08:23:05;;;;;;;18.25;3.95;;;;;;;25.17;46.04;101228.63;4993879;28;20042;-34
2022/05/16 08:25:31;;;;;;;9.43;3.20;;;;;;;25.40;46.07;101226.47;4994146;28;20026;-34
2022/05/16 08:27:56;;;;;;;10.63;3.22;;;;;;;26.00;44.58;101224.91;4976460;28;20026;-34
2022/05/16 08:30:23;;;;;;;12.93;3.65;;;;;;;26.93;42.57;101225.56;4993194;28;20037;-32
2022/05/16 08:32:49;;;;;;;15.55;3.60;;;;;;;27.81;41.18;101223.22;4994316;28;20049;-33
2022/05/16 08:35:16;;;;;;;16.25;3.35;;;;;;;28.89;38.74;101226.56;4993778;28;20034;-34
2022/05/16 08:40:56;;;;;;;12.95;3.10;;;;;;;31.27;32.97;101227.53;4993373;28;19925;-34
2022/05/16 08:43:37;;;;;;;9.18;3.22;;;;;;;30.80;32.85;101229.59;4976907;28;20054;-33
2022/05/16 08:46:22;;;;;;;18.48;3.35;;;;;;;31.00;33.15;101231.19;4992768;28;20157;-34
2022/05/16 08:48:52;;;;;;;11.10;3.67;;;;;;;30.55;32.71;101228.19;4992327;28;20019;-36
2022/05/16 08:51:27;;;;;;;19.30;3.75;;;;;;;29.60;34.29;101243.38;4989672;28;20055;-36
2022/05/16 08:54:00;;;;;;;14.23;3.58;;;;;;;29.51;35.40;101244.03;4974328;28;20086;-36
2022/05/16 08:56:29;;;;;;;17.73;3.55;;;;;;;29.62;35.07;101238.31;4991216;28;20034;-36
2022/05/16 08:59:05;;;;;;;11.10;3.60;;;;;;;30.19;33.88;101250.19;4975365;28;20027;-34
2022/05/16 09:01:50;;;;;;;15.18;4.28;;;;;;;29.20;35.77;101270.53;4995370;28;20082;-35
2022/05/16 09:04:41;;;;;;;18.85;4.03;;;;;;;28.12;38.01;101287.38;4991475;28;20031;-34
2022/05/16 09:07:23;;;;;;;17.58;4.35;;;;;;;28.17;38.20;101285.44;4986344;28;20555;-34
2022/05/16 09:10:11;;;;;;;20.40;4.43;;;;;;;28.15;38.34;101284.88;4994792;28;20042;-36
2022/05/16 09:12:55;;;;;;;15.77;4.00;;;;;;;28.43;38.09;101282.41;4997092;28;20041;-34
2022/05/16 09:15:47;;;;;;;17.65;5.18;;;;;;;28.09;39.26;101288.78;4996764;28;20026;-38
2022/05/16 09:18:36;;;;;;;24.42;5.30;;;;;;;27.70;39.89;101306.22;4976580;28;20392;-35
2022/05/16 09:21:10;;;;;;;26.00;6.35;;;;;;;26.42;42.56;101314.84;4977878;28;20086;-35
2022/05/16 09:23:52;;;;;;;16.80;5.90;;;;;;;26.32;42.71;101325.88;4976318;29;20028;-35
2022/05/16 09:26:36;;;;;;;20.70;6.10;;;;;;;26.16;43.70;101324.22;4958032;29;20062;-33
2022/05/16 09:29:24;;;;;;;25.08;6.47;;;;;;;25.66;44.10;101339.53;4971469;28;20039;-34
2022/05/16 09:31:51;;;;;;;21.42;6.70;;;;;;;25.24;45.97;101337.72;4995105;28;20045;-33
2022/05/16 09:34:17;;;;;;;30.38;7.78;;;;;;;24.40;47.58;101339.31;4994183;28;20397;-34
2022/05/16 09:36:49;;;;;;;31.70;7.40;;;;;;;23.71;49.72;101346.31;4994544;28;20082;-35
2022/05/16 09:39:21;;;;;;;27.20;7.07;;;;;;;23.42;51.07;101357.50;4991309;28;20041;-35
2022/05/16 09:41:55;;;;;;;26.75;7.00;;;;;;;22.95;52.63;101346.13;4991738;28;20042;-36
2022/05/16 09:44:21;;;;;;;22.48;6.78;;;;;;;22.90;53.29;101354.28;4989757;28;20095;-37
2022/05/16 09:46:46;;;;;;;16.35;6.57;;;;;;;22.87;53.21;101339.16;4990621;28;20037;-34
2022/05/16 09:49:25;;;;;;;19.55;6.10;;;;;;;22.93;53.13;101348.28;4990593;28;20030;-33
2022/05/16 09:51:51;;;;;;;61.88;8.10;;;;;;;22.46;54.37;101346.75;4989638;28;20481;-33
2022/05/16 09:54:18;;;;;;;33.13;6.22;;;;;;;22.09;55.11;101344.44;4975443;28;20055;-34
2022/05/16 09:57:04;;;;;;;27.17;6.30;;;;;;;22.01;56.32;101339.38;4974694;28;20027;-34
2022/05/16 09:59:40;;;;;;;17.80;4.78;;;;;;;21.95;57.69;101345.81;4991653;28;20046;-34
2022/05/16 10:02:27;;;;;;;24.42;5.35;;;;;;;21.36;62.88;101361.59;4991327;28;20030;-34
2022/05/16 10:04:56;;;;;;;23.40;5.07;;;;;;;21.12;67.04;101356.16;4979543;28;20073;-35
2022/05/16 10:07:27;;;;;;;21.25;4.90;;;;;;;20.52;69.21;101350.88;4990530;28;20082;-33
2022/05/16 10:09:53;;;;;;;25.60;5.60;;;;;;;20.33;71.59;101367.38;4990975;28;20394;-34
2022/05/16 10:12:21;;;;;;;18.90;4.65;;;;;;;20.25;71.54;101384.09;4972960;28;20023;-35
2022/05/16 10:14:49;;;;;;;;;;;;;;;19.91;73.12;101396.56;4972523;28;20093;-34
2022/05/16 10:17:36;;;;;;;32.05;8.85;;;;;;;19.37;74.48;101400.97;4990425;28;19996;-33
2022/05/16 10:20:08;;;;;;;37.65;9.48;;;;;;;19.26;75.89;101403.38;4971847;28;20403;-34
2022/05/16 10:22:35;;;;;;;39.10;11.15;;;;;;;19.05;75.99;101428.34;4971220;28;20027;-33
2022/05/16 10:25:16;;;;;;;38.22;13.10;;;;;;;19.20;77.00;101437.03;4988909;28;20023;-32
2022/05/16 10:27:43;;;;;;;48.22;17.35;;;;;;;19.03;76.80;101439.47;4971512;28;20041;-34
2022/05/16 10:30:21;;;;;;;50.83;20.00;;;;;;;19.19;75.71;101445.44;4971121;28;20034;-34
2022/05/16 10:35:45;;;;;;;52.78;23.40;;;;;;;18.99;76.08;101460.09;4968411;28;20126;-35
2022/05/16 10:38:37;;;;;;;50.28;24.70;;;;;;;19.05;75.90;101467.38;4967334;29;20114;-35
2022/05/16 10:41:08;;;;;;;59.72;25.17;;;;;;;19.25;75.68;101469.13;4950533;29;20059;-33
2022/05/16 10:43:40;;;;;;;51.85;23.40;;;;;;;19.58;75.36;101485.13;4968491;29;20031;-34
2022/05/16 10:46:09;;;;;;;49.40;22.08;;;;;;;19.62;73.65;101482.81;4969134;28;20049;-33
2022/05/16 10:48:51;;;;;;;60.22;23.73;;;;;;;19.45;74.52;101482.56;4967979;29;20054;-33
2022/05/16 10:51:23;;;;;;;49.30;22.55;;;;;;;19.49;75.13;101475.59;4965482;29;20035;-33
2022/05/16 10:54:07;;;;;;;64.43;22.95;;;;;;;19.53;75.30;101488.53;4967154;29;20087;-33
2022/05/16 10:57:13;;;;;;;56.05;22.23;;;;;;;19.65;75.12;101487.81;4968538;28;20423;-32
2022/05/16 10:59:47;;;;;;;45.90;19.83;;;;;;;19.61;74.70;101500.25;4967733;28;20043;-32
2022/05/16 11:02:50;;;;;;;44.17;17.45;;;;;;;19.17;74.84;101504.84;4967991;29;20023;-35
2022/05/16 11:05:27;;;;;;;43.83;14.55;;;;;;;18.95;74.81;101512.59;4969272;29;20027;-35
2022/05/16 11:08:14;;;;;;;30.92;12.55;;;;;;;18.98;75.31;101501.22;4970203;29;20023;-34
2022/05/16 11:11:08;;;;;;;34.60;12.55;;;;;;;19.00;74.65;101508.13;4955102;29;20058;-33
2022/05/16 11:13:49;;;;;;;32.13;12.43;;;;;;;18.78;74.73;101504.13;4967894;28;20062;-34
2022/05/16 11:16:32;;;;;;;30.52;11.15;;;;;;;19.00;74.64;101513.59;4969079;29;20055;-35
2022/05/16 11:19:25;;;;;;;34.67;10.30;;;;;;;19.06;74.41;101520.91;4970214;29;20035;-36
2022/05/16 11:21:54;;;;;;;36.28;12.13;;;;;;;18.53;75.48;101517.66;4968120;29;20038;-37
2022/05/16 11:24:30;;;;;;;31.33;11.65;;;;;;;18.50;76.25;101531.72;4968798;28;20031;-34
2022/05/16 11:27:09;;;;;;;38.28;10.95;;;;;;;18.34;77.42;101541.22;4964589;29;20040;-34
2022/05/16 11:29:57;;;;;;;30.58;13.60;;;;;;;17.89;79.40;101533.00;4966218;29;20042;-37
2022/05/16 11:32:26;;;;;;;36.17;15.15;;;;;;;17.60;81.55;101529.69;4966768;28;20063;-36
2022/05/16 11:35:05;;;;;;;37.13;16.98;;;;;;;17.56;83.01;101539.31;4967414;28;20047;-37
2022/05/16 11:37:56;;;;;;;41.60;19.50;;;;;;;17.38;82.58;101542.69;4966979;29;20019;-37
2022/05/16 11:40:26;;;;;;;48.40;22.27;;;;;;;17.22;83.85;101549.38;4970651;29;20039;-35
2022/05/16 11:43:12;;;;;;;48.25;23.00;;;;;;;17.17;86.43;101551.03;4962964;29;20039;-33
2022/05/16 11:46:14;;;;;;;54.63;24.38;;;;;;;16.76;87.58;101543.84;4958163;28;20036;-40
2022/05/16 11:49:11;;;;;;;66.03;27.70;;;;;;;16.56;89.24;101544.66;4956418;29;20114;-41
2022/05/16 11:52:17;;;;;;;63.50;26.07;;;;;;;16.76;90.51;101541.97;4962203;28;20035;-40